www.cux-wetter.de
Wetterdaten: Sonntag, 23.11.2014
Datum Zeit Temp. A. Feuchte A. Luftdruck Regen Wind Richtung Richtung Sonnenschein Solar Taupunkt Windchill Windben
23.11.2014 00:00 6,4 C 90 % 1018,5 hPa 0,0 l/m 20,6 km/h (4 Bft) S 170 0 min 0 W/m 4,9 C -1,6 C 20,6 km/h (4 Bft)
23.11.2014 00:15 6,4 C 90 % 1018,5 hPa 0,0 l/m 16,9 km/h (3 Bft) S-SO 165 0 min 0 W/m 4,9 C -0,1 C 16,9 km/h (3 Bft)
23.11.2014 00:30 6,4 C 90 % 1018,5 hPa 0,0 l/m 19,9 km/h (4 Bft) S 170 0 min 0 W/m 4,9 C -1,3 C 19,9 km/h (4 Bft)
23.11.2014 00:45 6,4 C 90 % 1018,5 hPa 0,0 l/m 17,5 km/h (3 Bft) S 170 0 min 0 W/m 4,9 C -0,4 C 17,5 km/h (3 Bft)
23.11.2014 01:00 6,5 C 90 % 1018,5 hPa 0,0 l/m 15,5 km/h (3 Bft) S-SO 160 0 min 0 W/m 5,0 C 0,7 C 15,5 km/h (3 Bft)
23.11.2014 01:15 6,5 C 90 % 1018,5 hPa 0,0 l/m 14,4 km/h (3 Bft) S 175 0 min 0 W/m 5,0 C 1,2 C 14,4 km/h (3 Bft)
23.11.2014 01:30 6,6 C 90 % 1018,5 hPa 0,0 l/m 17,1 km/h (3 Bft) S-SO 165 0 min 0 W/m 5,1 C 0,1 C 17,1 km/h (3 Bft)
23.11.2014 01:45 6,5 C 90 % 1018,5 hPa 0,0 l/m 13,9 km/h (3 Bft) S-SO 155 0 min 0 W/m 5,0 C 1,4 C 13,9 km/h (3 Bft)
23.11.2014 02:00 6,5 C 90 % 1018,5 hPa 0,0 l/m 18,4 km/h (3 Bft) S 175 0 min 0 W/m 5,0 C -0,6 C 18,4 km/h (3 Bft)
23.11.2014 02:15 6,5 C 90 % 1018,5 hPa 0,0 l/m 14,6 km/h (3 Bft) S-SO 165 0 min 0 W/m 5,0 C 1,1 C 14,6 km/h (3 Bft)
23.11.2014 02:30 6,5 C 90 % 1018,5 hPa 0,0 l/m 12,8 km/h (3 Bft) S-SO 160 0 min 0 W/m 5,0 C 2,0 C 12,8 km/h (3 Bft)
23.11.2014 02:45 6,6 C 90 % 1018,5 hPa 0,0 l/m 14,7 km/h (3 Bft) S-SO 150 0 min 0 W/m 5,1 C 1,2 C 14,7 km/h (3 Bft)
23.11.2014 03:00 6,6 C 90 % 1018,5 hPa 0,0 l/m 13,3 km/h (3 Bft) S-SO 150 0 min 0 W/m 5,1 C 1,9 C 13,3 km/h (3 Bft)
23.11.2014 03:15 6,5 C 90 % 1018,5 hPa 0,0 l/m 14,8 km/h (3 Bft) S 180 0 min 0 W/m 5,0 C 1,0 C 14,8 km/h (3 Bft)
23.11.2014 03:30 6,5 C 90 % 1018,5 hPa 0,0 l/m 15,0 km/h (3 Bft) S 180 0 min 0 W/m 5,0 C 0,9 C 15,0 km/h (3 Bft)
23.11.2014 03:45 6,5 C 90 % 1017,5 hPa 0,0 l/m 13,0 km/h (3 Bft) S-SO 165 0 min 0 W/m 5,0 C 1,9 C 13,0 km/h (3 Bft)
23.11.2014 04:00 6,4 C 90 % 1017,5 hPa 0,0 l/m 14,8 km/h (3 Bft) S 180 0 min 0 W/m 4,9 C 0,9 C 14,8 km/h (3 Bft)
23.11.2014 04:15 6,4 C 90 % 1017,5 hPa 0,0 l/m 15,5 km/h (3 Bft) S-SO 165 0 min 0 W/m 4,9 C 0,5 C 15,5 km/h (3 Bft)
23.11.2014 04:30 6,4 C 90 % 1018,5 hPa 0,0 l/m 15,6 km/h (3 Bft) S 180 0 min 0 W/m 4,9 C 0,5 C 15,6 km/h (3 Bft)
23.11.2014 04:45 6,4 C 90 % 1017,5 hPa 0,0 l/m 13,6 km/h (3 Bft) S 180 0 min 0 W/m 4,9 C 1,5 C 13,6 km/h (3 Bft)
23.11.2014 05:00 6,5 C 90 % 1017,5 hPa 0,0 l/m 13,3 km/h (3 Bft) S 170 0 min 0 W/m 5,0 C 1,8 C 13,3 km/h (3 Bft)
23.11.2014 05:15 6,5 C 90 % 1017,5 hPa 0,0 l/m 13,8 km/h (3 Bft) S 170 0 min 0 W/m 5,0 C 1,5 C 13,8 km/h (3 Bft)
23.11.2014 05:30 6,5 C 90 % 1017,5 hPa 0,0 l/m 15,2 km/h (3 Bft) S 170 0 min 0 W/m 5,0 C 0,8 C 15,2 km/h (3 Bft)
23.11.2014 05:45 6,5 C 90 % 1017,5 hPa 0,0 l/m 13,2 km/h (3 Bft) S-SO 160 0 min 0 W/m 5,0 C 1,8 C 13,2 km/h (3 Bft)
23.11.2014 06:00 6,6 C 90 % 1017,5 hPa 0,0 l/m 10,5 km/h (2 Bft) S 175 0 min 0 W/m 5,1 C 3,5 C 10,5 km/h (2 Bft)
23.11.2014 06:15 6,6 C 90 % 1017,5 hPa 0,0 l/m 10,4 km/h (2 Bft) S-SO 165 0 min 0 W/m 5,1 C 3,6 C 10,4 km/h (2 Bft)
23.11.2014 06:30 6,5 C 91 % 1017,5 hPa 0,0 l/m 10,0 km/h (2 Bft) S-SO 155 0 min 0 W/m 5,1 C 3,7 C 10,0 km/h (2 Bft)
23.11.2014 06:45 6,5 C 91 % 1017,5 hPa 0,0 l/m 10,0 km/h (2 Bft) S 180 0 min 0 W/m 5,1 C 3,7 C 10,0 km/h (2 Bft)
23.11.2014 07:00 6,6 C 91 % 1017,5 hPa 0,0 l/m 12,5 km/h (2 Bft) S 170 0 min 0 W/m 5,2 C 2,3 C 12,5 km/h (2 Bft)
23.11.2014 07:15 6,6 C 91 % 1017,5 hPa 0,0 l/m 9,2 km/h (2 Bft) S 180 0 min 0 W/m 5,2 C 4,4 C 9,2 km/h (2 Bft)
23.11.2014 07:30 6,6 C 91 % 1017,5 hPa 0,0 l/m 11,7 km/h (2 Bft) S-SO 165 0 min 0 W/m 5,2 C 2,8 C 11,7 km/h (2 Bft)
23.11.2014 07:45 6,6 C 91 % 1018,5 hPa 0,0 l/m 12,7 km/h (3 Bft) S 175 0 min 0 W/m 5,2 C 2,2 C 12,7 km/h (3 Bft)
23.11.2014 08:00 6,7 C 91 % 1017,5 hPa 0,0 l/m 13,6 km/h (3 Bft) S 170 0 min 0 W/m 5,3 C 1,8 C 13,6 km/h (3 Bft)
23.11.2014 08:15 6,7 C 91 % 1017,5 hPa 0,0 l/m 12,7 km/h (3 Bft) SO 145 0 min 0 W/m 5,3 C 2,3 C 12,7 km/h (3 Bft)
23.11.2014 08:30 6,7 C 91 % 1017,5 hPa 0,3 l/m 14,1 km/h (3 Bft) S 175 0 min 0 W/m 5,3 C 1,6 C 14,1 km/h (3 Bft)
23.11.2014 08:45 6,8 C 91 % 1017,5 hPa 0,0 l/m 10,9 km/h (2 Bft) S 180 0 min 0 W/m 5,4 C 3,5 C 10,9 km/h (2 Bft)
23.11.2014 09:00 6,8 C 91 % 1017,5 hPa 0,0 l/m 13,8 km/h (3 Bft) S-SO 160 0 min 0 W/m 5,4 C 1,9 C 13,8 km/h (3 Bft)
23.11.2014 09:15 6,8 C 92 % 1018,5 hPa 0,0 l/m 12,3 km/h (2 Bft) S 180 0 min 0 W/m 5,6 C 2,7 C 12,3 km/h (2 Bft)
23.11.2014 09:30 6,8 C 92 % 1017,5 hPa 0,0 l/m 16,6 km/h (3 Bft) S 180 0 min 0 W/m 5,6 C 0,5 C 16,6 km/h (3 Bft)
23.11.2014 09:45 6,9 C 92 % 1018,5 hPa 0,0 l/m 13,7 km/h (3 Bft) S 190 0 min 0 W/m 5,7 C 2,0 C 13,7 km/h (3 Bft)
23.11.2014 10:00 7,1 C 92 % 1018,5 hPa 0,0 l/m 12,4 km/h (2 Bft) S 185 0 min 0 W/m 5,9 C 3,0 C 12,4 km/h (2 Bft)
23.11.2014 10:15 7,3 C 92 % 1018,5 hPa 0,0 l/m 13,5 km/h (3 Bft) S 175 0 min 0 W/m 6,1 C 2,6 C 13,5 km/h (3 Bft)
23.11.2014 10:30 7,4 C 92 % 1017,5 hPa 0,0 l/m 14,1 km/h (3 Bft) S 180 0 min 0 W/m 6,2 C 2,4 C 14,1 km/h (3 Bft)
23.11.2014 10:45 7,5 C 92 % 1017,5 hPa 0,0 l/m 12,5 km/h (2 Bft) S 185 0 min 0 W/m 6,3 C 3,4 C 12,5 km/h (2 Bft)
23.11.2014 11:00 7,6 C 92 % 1017,5 hPa 0,0 l/m 13,2 km/h (3 Bft) S 170 0 min 0 W/m 6,4 C 3,1 C 13,2 km/h (3 Bft)
23.11.2014 11:15 7,7 C 92 % 1017,5 hPa 0,0 l/m 11,6 km/h (2 Bft) S-SW 195 0 min 0 W/m 6,5 C 4,1 C 11,6 km/h (2 Bft)
23.11.2014 11:30 8,0 C 92 % 1017,5 hPa 0,0 l/m 12,5 km/h (2 Bft) S 185 0 min 0 W/m 6,8 C 3,9 C 12,5 km/h (2 Bft)
23.11.2014 11:45 8,4 C 92 % 1017,5 hPa 0,0 l/m 11,7 km/h (2 Bft) S 175 0 min 0 W/m 7,2 C 4,8 C 11,7 km/h (2 Bft)
23.11.2014 12:00 8,6 C 91 % 1017,5 hPa 0,0 l/m 15,2 km/h (3 Bft) S 170 0 min 0 W/m 7,2 C 3,3 C 15,2 km/h (3 Bft)
23.11.2014 12:14 8,8 C 91 % 1017,5 hPa 0,0 l/m 14,1 km/h (3 Bft) S 170 0 min 0 W/m 7,4 C 4,1 C 14,1 km/h (3 Bft)
23.11.2014 12:30 9,0 C 91 % 1017,5 hPa 0,0 l/m 17,7 km/h (3 Bft) S 170 0 min 0 W/m 7,6 C 2,8 C 17,7 km/h (3 Bft)
23.11.2014 12:45 9,5 C 91 % 1016,5 hPa 0,0 l/m 14,5 km/h (3 Bft) S 180 0 min 0 W/m 8,1 C 4,7 C 14,5 km/h (3 Bft)
23.11.2014 13:00 9,5 C 90 % 1016,5 hPa 0,0 l/m 16,0 km/h (3 Bft) S 180 0 min 0 W/m 7,9 C 4,1 C 16,0 km/h (3 Bft)
23.11.2014 13:15 9,7 C 90 % 1016,5 hPa 0,0 l/m 14,6 km/h (3 Bft) S 170 0 min 0 W/m 8,1 C 4,9 C 14,6 km/h (3 Bft)
23.11.2014 13:30 9,8 C 90 % 1016,5 hPa 0,0 l/m 13,0 km/h (3 Bft) S-SO 160 0 min 0 W/m 8,2 C 5,8 C 13,0 km/h (3 Bft)
23.11.2014 13:45 9,9 C 89 % 1016,5 hPa 0,0 l/m 14,9 km/h (3 Bft) S-SO 160 0 min 0 W/m 8,2 C 5,1 C 14,9 km/h (3 Bft)
23.11.2014 14:00 10,0 C 89 % 1016,5 hPa 0,0 l/m 14,6 km/h (3 Bft) S-SO 160 0 min 0 W/m 8,3 C 5,3 C 14,6 km/h (3 Bft)
23.11.2014 14:15 10,0 C 89 % 1015,5 hPa 0,0 l/m 13,8 km/h (3 Bft) S 170 0 min 0 W/m 8,3 C 5,7 C 13,8 km/h (3 Bft)
23.11.2014 14:30 9,9 C 89 % 1015,5 hPa 0,0 l/m 13,7 km/h (3 Bft) S-SO 160 0 min 0 W/m 8,2 C 5,6 C 13,7 km/h (3 Bft)
23.11.2014 14:45 9,8 C 89 % 1015,5 hPa 0,0 l/m 13,7 km/h (3 Bft) S-SO 150 0 min 0 W/m 8,1 C 5,5 C 13,7 km/h (3 Bft)
23.11.2014 15:00 9,8 C 89 % 1014,5 hPa 0,0 l/m 11,8 km/h (2 Bft) S-SO 155 0 min 0 W/m 8,1 C 6,4 C 11,8 km/h (2 Bft)
23.11.2014 15:15 9,8 C 89 % 1014,5 hPa 0,0 l/m 16,3 km/h (3 Bft) S-SO 165 0 min 0 W/m 8,1 C 4,4 C 16,3 km/h (3 Bft)
23.11.2014 15:30 9,7 C 89 % 1014,5 hPa 0,0 l/m 16,0 km/h (3 Bft) S 170 0 min 0 W/m 8,0 C 4,4 C 16,0 km/h (3 Bft)
23.11.2014 15:45 9,6 C 90 % 1014,5 hPa 0,0 l/m 17,2 km/h (3 Bft) S 175 0 min 0 W/m 8,0 C 3,8 C 17,2 km/h (3 Bft)
23.11.2014 16:00 9,5 C 90 % 1014,5 hPa 0,0 l/m 17,1 km/h (3 Bft) S-SO 155 0 min 0 W/m 7,9 C 3,7 C 17,1 km/h (3 Bft)
23.11.2014 16:15 9,4 C 90 % 1014,5 hPa 0,0 l/m 11,3 km/h (2 Bft) S-SO 160 0 min 0 W/m 7,8 C 6,2 C 11,3 km/h (2 Bft)
23.11.2014 16:30 9,2 C 90 % 1014,5 hPa 0,0 l/m 13,2 km/h (3 Bft) S 175 0 min 0 W/m 7,6 C 5,0 C 13,2 km/h (3 Bft)
23.11.2014 16:45 9,0 C 90 % 1013,5 hPa 0,0 l/m 13,0 km/h (3 Bft) S-SO 160 0 min 0 W/m 7,4 C 4,9 C 13,0 km/h (3 Bft)
23.11.2014 17:00 9,0 C 90 % 1013,5 hPa 0,0 l/m 12,0 km/h (2 Bft) S-SO 165 0 min 0 W/m 7,4 C 5,4 C 12,0 km/h (2 Bft)
23.11.2014 17:15 8,9 C 90 % 1013,5 hPa 0,0 l/m 16,6 km/h (3 Bft) S-SO 165 0 min 0 W/m 7,4 C 3,1 C 16,6 km/h (3 Bft)
23.11.2014 17:30 8,9 C 90 % 1013,5 hPa 0,0 l/m 16,7 km/h (3 Bft) S-SO 165 0 min 0 W/m 7,4 C 3,1 C 16,7 km/h (3 Bft)
23.11.2014 17:45 9,0 C 90 % 1013,5 hPa 0,0 l/m 18,0 km/h (3 Bft) S-SO 160 0 min 0 W/m 7,4 C 2,7 C 18,0 km/h (3 Bft)
23.11.2014 18:00 9,1 C 90 % 1013,5 hPa 0,0 l/m 15,3 km/h (3 Bft) S 170 0 min 0 W/m 7,5 C 3,9 C 15,3 km/h (3 Bft)
23.11.2014 18:15 9,2 C 90 % 1013,5 hPa 0,0 l/m 20,0 km/h (4 Bft) S-SO 165 0 min 0 W/m 7,6 C 2,3 C 20,0 km/h (4 Bft)
23.11.2014 18:30 9,2 C 90 % 1013,5 hPa 0,0 l/m 14,0 km/h (3 Bft) S 180 0 min 0 W/m 7,6 C 4,6 C 14,0 km/h (3 Bft)
23.11.2014 18:45 9,3 C 90 % 1013,5 hPa 0,0 l/m 16,6 km/h (3 Bft) S 175 0 min 0 W/m 7,7 C 3,6 C 16,6 km/h (3 Bft)
23.11.2014 19:00 9,2 C 90 % 1013,5 hPa 0,0 l/m 15,1 km/h (3 Bft) S 180 0 min 0 W/m 7,6 C 4,1 C 15,1 km/h (3 Bft)
23.11.2014 19:15 9,2 C 90 % 1012,5 hPa 0,0 l/m 13,5 km/h (3 Bft) S 180 0 min 0 W/m 7,6 C 4,8 C 13,5 km/h (3 Bft)
23.11.2014 19:30 9,2 C 89 % 1012,5 hPa 0,0 l/m 18,3 km/h (3 Bft) S 175 0 min 0 W/m 7,5 C 2,8 C 18,3 km/h (3 Bft)
23.11.2014 19:45 9,3 C 89 % 1012,5 hPa 0,0 l/m 16,0 km/h (3 Bft) S 180 0 min 0 W/m 7,6 C 3,9 C 16,0 km/h (3 Bft)
23.11.2014 20:00 9,3 C 89 % 1012,5 hPa 0,0 l/m 14,9 km/h (3 Bft) S 180 0 min 0 W/m 7,6 C 4,3 C 14,9 km/h (3 Bft)
23.11.2014 20:15 9,3 C 88 % 1012,5 hPa 0,0 l/m 13,3 km/h (3 Bft) S 185 0 min 0 W/m 7,4 C 5,1 C 13,3 km/h (3 Bft)
23.11.2014 20:29 9,4 C 88 % 1012,5 hPa 0,0 l/m 15,3 km/h (3 Bft) S 180 0 min 0 W/m 7,5 C 4,3 C 15,3 km/h (3 Bft)
23.11.2014 20:45 9,4 C 88 % 1012,5 hPa 0,0 l/m 14,8 km/h (3 Bft) S-SW 195 0 min 0 W/m 7,5 C 4,5 C 14,8 km/h (3 Bft)
23.11.2014 21:00 9,5 C 88 % 1012,5 hPa 0,0 l/m 14,1 km/h (3 Bft) S 180 0 min 0 W/m 7,6 C 4,9 C 14,1 km/h (3 Bft)
23.11.2014 21:15 9,5 C 87 % 1012,5 hPa 0,0 l/m 14,8 km/h (3 Bft) S 185 0 min 0 W/m 7,4 C 4,6 C 14,8 km/h (3 Bft)
23.11.2014 21:30 9,6 C 87 % 1012,5 hPa 0,0 l/m 15,0 km/h (3 Bft) S 185 0 min 0 W/m 7,5 C 4,6 C 15,0 km/h (3 Bft)
23.11.2014 21:45 9,6 C 87 % 1012,5 hPa 0,0 l/m 15,9 km/h (3 Bft) S 185 0 min 0 W/m 7,5 C 4,3 C 15,9 km/h (3 Bft)
23.11.2014 22:00 9,7 C 87 % 1011,5 hPa 0,0 l/m 15,0 km/h (3 Bft) S 185 0 min 0 W/m 7,6 C 4,8 C 15,0 km/h (3 Bft)
23.11.2014 22:15 9,8 C 87 % 1011,5 hPa 0,0 l/m 15,8 km/h (3 Bft) S 185 0 min 0 W/m 7,7 C 4,6 C 15,8 km/h (3 Bft)
23.11.2014 22:30 9,9 C 87 % 1011,5 hPa 0,0 l/m 15,5 km/h (3 Bft) S 180 0 min 0 W/m 7,8 C 4,8 C 15,5 km/h (3 Bft)
23.11.2014 22:45 10,0 C 87 % 1011,5 hPa 0,0 l/m 15,3 km/h (3 Bft) S 175 0 min 0 W/m 7,9 C 5,0 C 15,3 km/h (3 Bft)
23.11.2014 23:00 10,0 C 87 % 1011,5 hPa 0,0 l/m 15,3 km/h (3 Bft) S 185 0 min 0 W/m 7,9 C 5,0 C 15,3 km/h (3 Bft)
23.11.2014 23:15 10,1 C 87 % 1011,5 hPa 0,0 l/m 12,0 km/h (2 Bft) S-SW 200 0 min 0 W/m 8,0 C 6,6 C 12,0 km/h (2 Bft)
23.11.2014 23:30 10,2 C 87 % 1011,5 hPa 0,0 l/m 14,6 km/h (3 Bft) S-SW 195 0 min 0 W/m 8,1 C 5,5 C 14,6 km/h (3 Bft)
23.11.2014 23:45 10,2 C 87 % 1011,5 hPa 0,0 l/m 15,0 km/h (3 Bft) S-SW 195 0 min 0 W/m 8,1 C 5,4 C 15,0 km/h (3 Bft)
_ Min-Zeit 00:00 21:15 22:00 - 07:15 - - - - 00:00 00:00 07:15
Minimum _ 6,4 C 87 % 1011,5 hPa - 9,2 km/h (2 Bft) - - - - 4,9 C -1,6 C 9,2 km/h (2 Bft)
_ Max-Zeit 23:30 09:15 00:00 08:30 00:00 - - 00:00 00:00 14:00 23:15 00:00
Maximum _ 10,2 C 92 % 1018,5 hPa 0,3 l/m 20,6 km/h
S (4 Bft)
- - 0 min 0 W/m 8,3 C 6,6 C 20,6 km/h
S (4 Bft)
Durchschnitt _ 8,1 C 90 % 1015,9 hPa #0,3 l/m 14,4 km/h (3 Bft) S - #0 min. 0 W/m 6,6 C 3,2 C 14,4 km/h (3 Bft)
copyright by Holger Just